sensor_id;sensor_type;location;lat;lon;timestamp;pressure;altitude;pressure_sealevel;temperature;humidity
62124;BME280;48110;47.532;19.078;2023-04-05T00:02:58;100692.59;;;1.28;58.61
62124;BME280;48110;47.532;19.078;2023-04-05T00:06:02;100691.66;;;1.29;58.28
62124;BME280;48110;47.532;19.078;2023-04-05T00:09:07;100698.03;;;1.38;57.41
62124;BME280;48110;47.532;19.078;2023-04-05T00:12:09;100686.75;;;1.38;57.09
62124;BME280;48110;47.532;19.078;2023-04-05T00:15:13;100685.50;;;1.30;57.73
62124;BME280;48110;47.532;19.078;2023-04-05T00:18:15;100683.47;;;1.21;57.54
62124;BME280;48110;47.532;19.078;2023-04-05T00:21:23;100680.66;;;1.24;58.35
62124;BME280;48110;47.532;19.078;2023-04-05T00:24:25;100682.97;;;1.29;58.10
62124;BME280;48110;47.532;19.078;2023-04-05T00:27:30;100681.16;;;1.17;59.22
62124;BME280;48110;47.532;19.078;2023-04-05T00:30:35;100674.06;;;1.19;57.84
62124;BME280;48110;47.532;19.078;2023-04-05T00:33:37;100678.66;;;1.15;58.61
62124;BME280;48110;47.532;19.078;2023-04-05T00:36:40;100672.34;;;1.05;58.74
62124;BME280;48110;47.532;19.078;2023-04-05T00:39:42;100677.75;;;1.02;58.94
62124;BME280;48110;47.532;19.078;2023-04-05T00:42:46;100679.97;;;1.08;59.93
62124;BME280;48110;47.532;19.078;2023-04-05T00:45:48;100683.75;;;1.04;58.98
62124;BME280;48110;47.532;19.078;2023-04-05T00:48:51;100681.50;;;0.98;58.77
62124;BME280;48110;47.532;19.078;2023-04-05T00:51:53;100677.66;;;1.04;58.61
62124;BME280;48110;47.532;19.078;2023-04-05T00:54:57;100681.34;;;1.01;58.40
62124;BME280;48110;47.532;19.078;2023-04-05T00:58:00;100683.94;;;1.01;59.16
62124;BME280;48110;47.532;19.078;2023-04-05T01:01:06;100682.56;;;0.96;58.64
62124;BME280;48110;47.532;19.078;2023-04-05T01:04:14;100674.81;;;0.94;59.40
62124;BME280;48110;47.532;19.078;2023-04-05T01:08:06;100671.06;;;0.98;58.69
62124;BME280;48110;47.532;19.078;2023-04-05T01:10:50;100675.06;;;1.04;58.24
62124;BME280;48110;47.532;19.078;2023-04-05T01:14:00;100668.91;;;1.05;58.91
62124;BME280;48110;47.532;19.078;2023-04-05T01:17:02;100667.91;;;0.93;59.58
62124;BME280;48110;47.532;19.078;2023-04-05T01:20:08;100672.75;;;0.99;59.80
62124;BME280;48110;47.532;19.078;2023-04-05T01:26:45;100665.28;;;0.80;61.36
62124;BME280;48110;47.532;19.078;2023-04-05T01:33:12;100671.37;;;0.67;62.74
62124;BME280;48110;47.532;19.078;2023-04-05T01:36:29;100673.31;;;0.63;64.18
62124;BME280;48110;47.532;19.078;2023-04-05T01:39:34;100661.88;;;0.66;65.27
62124;BME280;48110;47.532;19.078;2023-04-05T01:42:39;100660.78;;;0.56;66.32
62124;BME280;48110;47.532;19.078;2023-04-05T01:45:43;100668.59;;;0.56;65.85
62124;BME280;48110;47.532;19.078;2023-04-05T01:48:45;100665.72;;;0.46;68.13
62124;BME280;48110;47.532;19.078;2023-04-05T01:51:48;100662.12;;;0.34;68.87
62124;BME280;48110;47.532;19.078;2023-04-05T01:54:51;100657.37;;;0.27;70.32
62124;BME280;48110;47.532;19.078;2023-04-05T01:57:54;100658.94;;;0.29;70.01
62124;BME280;48110;47.532;19.078;2023-04-05T02:00:58;100661.00;;;0.24;71.74
62124;BME280;48110;47.532;19.078;2023-04-05T02:04:00;100669.53;;;0.14;73.41
62124;BME280;48110;47.532;19.078;2023-04-05T02:07:03;100664.09;;;0.17;73.13
62124;BME280;48110;47.532;19.078;2023-04-05T02:10:05;100666.12;;;0.26;73.24
62124;BME280;48110;47.532;19.078;2023-04-05T02:13:08;100665.59;;;0.21;73.44
62124;BME280;48110;47.532;19.078;2023-04-05T02:16:11;100664.94;;;0.17;73.04
62124;BME280;48110;47.532;19.078;2023-04-05T02:19:14;100658.03;;;0.16;74.83
62124;BME280;48110;47.532;19.078;2023-04-05T02:22:19;100664.09;;;0.17;73.96
62124;BME280;48110;47.532;19.078;2023-04-05T02:25:22;100656.06;;;0.20;74.01
62124;BME280;48110;47.532;19.078;2023-04-05T02:28:25;100663.84;;;0.07;75.05
62124;BME280;48110;47.532;19.078;2023-04-05T02:31:28;100661.88;;;-0.04;76.03
62124;BME280;48110;47.532;19.078;2023-04-05T02:34:30;100660.37;;;0.07;75.72
62124;BME280;48110;47.532;19.078;2023-04-05T02:37:34;100656.94;;;0.06;75.55
62124;BME280;48110;47.532;19.078;2023-04-05T02:40:37;100658.06;;;0.02;76.68
62124;BME280;48110;47.532;19.078;2023-04-05T02:43:43;100655.38;;;-0.11;76.82
62124;BME280;48110;47.532;19.078;2023-04-05T02:46:46;100657.13;;;0.03;75.10
62124;BME280;48110;47.532;19.078;2023-04-05T02:49:49;100654.91;;;-0.03;76.37
62124;BME280;48110;47.532;19.078;2023-04-05T02:52:52;100656.59;;;-0.16;77.68
62124;BME280;48110;47.532;19.078;2023-04-05T02:55:55;100653.69;;;-0.12;77.73
62124;BME280;48110;47.532;19.078;2023-04-05T02:58:58;100651.28;;;-0.15;77.97
62124;BME280;48110;47.532;19.078;2023-04-05T03:02:01;100651.72;;;-0.08;78.65
62124;BME280;48110;47.532;19.078;2023-04-05T03:05:05;100646.59;;;-0.10;77.71
62124;BME280;48110;47.532;19.078;2023-04-05T03:08:09;100644.66;;;-0.20;79.10
62124;BME280;48110;47.532;19.078;2023-04-05T03:11:21;100649.12;;;-0.22;79.21
62124;BME280;48110;47.532;19.078;2023-04-05T03:14:24;100644.09;;;-0.39;80.87
62124;BME280;48110;47.532;19.078;2023-04-05T03:17:27;100648.81;;;-0.46;81.38
62124;BME280;48110;47.532;19.078;2023-04-05T03:20:30;100657.75;;;-0.50;80.97
62124;BME280;48110;47.532;19.078;2023-04-05T03:23:33;100656.84;;;-0.35;79.27
62124;BME280;48110;47.532;19.078;2023-04-05T03:26:37;100656.84;;;-0.35;80.54
62124;BME280;48110;47.532;19.078;2023-04-05T03:29:40;100658.34;;;-0.31;79.62
62124;BME280;48110;47.532;19.078;2023-04-05T03:32:44;100660.37;;;-0.50;79.38
62124;BME280;48110;47.532;19.078;2023-04-05T03:35:48;100659.44;;;-0.49;80.86
62124;BME280;48110;47.532;19.078;2023-04-05T03:38:51;100659.06;;;-0.43;79.56
62124;BME280;48110;47.532;19.078;2023-04-05T03:41:54;100657.28;;;-0.43;80.00
62124;BME280;48110;47.532;19.078;2023-04-05T03:44:58;100657.28;;;-0.57;81.68
62124;BME280;48110;47.532;19.078;2023-04-05T03:48:01;100673.22;;;-0.47;80.31
62124;BME280;48110;47.532;19.078;2023-04-05T03:51:04;100672.00;;;-0.41;81.84
62124;BME280;48110;47.532;19.078;2023-04-05T03:54:07;100668.47;;;-0.55;81.68
62124;BME280;48110;47.532;19.078;2023-04-05T03:57:10;100679.53;;;-0.51;81.71
62124;BME280;48110;47.532;19.078;2023-04-05T04:00:14;100677.56;;;-0.48;80.96
62124;BME280;48110;47.532;19.078;2023-04-05T04:03:18;100675.94;;;-0.49;81.43
62124;BME280;48110;47.532;19.078;2023-04-05T04:06:23;100673.94;;;-0.59;82.06
62124;BME280;48110;47.532;19.078;2023-04-05T04:09:28;100670.53;;;-0.75;81.71
62124;BME280;48110;47.532;19.078;2023-04-05T04:12:32;100673.75;;;-0.86;83.52
62124;BME280;48110;47.532;19.078;2023-04-05T04:15:34;100686.69;;;-0.84;85.17
62124;BME280;48110;47.532;19.078;2023-04-05T04:18:39;100682.00;;;-0.78;83.06
62124;BME280;48110;47.532;19.078;2023-04-05T04:21:41;100681.50;;;-0.84;83.11
62124;BME280;48110;47.532;19.078;2023-04-05T04:24:53;100686.69;;;-0.84;83.50
62124;BME280;48110;47.532;19.078;2023-04-05T04:28:00;100682.25;;;-0.82;82.80
62124;BME280;48110;47.532;19.078;2023-04-05T04:31:03;100686.38;;;-0.78;83.77
62124;BME280;48110;47.532;19.078;2023-04-05T04:34:11;100694.63;;;-0.72;82.43
62124;BME280;48110;47.532;19.078;2023-04-05T04:37:15;100682.91;;;-0.79;82.14
62124;BME280;48110;47.532;19.078;2023-04-05T04:40:33;100688.44;;;-0.69;82.55
62124;BME280;48110;47.532;19.078;2023-04-05T04:43:48;100688.91;;;-0.63;82.83
62124;BME280;48110;47.532;19.078;2023-04-05T04:46:50;100686.81;;;-0.72;83.33
62124;BME280;48110;47.532;19.078;2023-04-05T04:49:56;100683.59;;;-0.61;83.84
62124;BME280;48110;47.532;19.078;2023-04-05T04:53:01;100681.78;;;-0.45;81.97
62124;BME280;48110;47.532;19.078;2023-04-05T04:56:07;100694.69;;;-0.58;82.94
62124;BME280;48110;47.532;19.078;2023-04-05T04:59:09;100692.56;;;-0.51;82.19
62124;BME280;48110;47.532;19.078;2023-04-05T05:02:12;100699.62;;;-0.53;82.05
62124;BME280;48110;47.532;19.078;2023-04-05T05:05:15;100695.75;;;-0.46;81.28
62124;BME280;48110;47.532;19.078;2023-04-05T05:08:17;100695.66;;;-0.45;81.68
62124;BME280;48110;47.532;19.078;2023-04-05T05:11:22;100698.16;;;-0.43;83.01
62124;BME280;48110;47.532;19.078;2023-04-05T05:14:25;100703.62;;;-0.48;81.54
62124;BME280;48110;47.532;19.078;2023-04-05T05:17:27;100704.66;;;-0.50;81.71
62124;BME280;48110;47.532;19.078;2023-04-05T05:20:30;100695.66;;;-0.45;81.91
62124;BME280;48110;47.532;19.078;2023-04-05T05:23:33;100708.53;;;-0.27;81.11
62124;BME280;48110;47.532;19.078;2023-04-05T05:26:37;100702.59;;;-0.15;77.82
62124;BME280;48110;47.532;19.078;2023-04-05T05:29:39;100704.91;;;-0.11;77.34
62124;BME280;48110;47.532;19.078;2023-04-05T05:32:42;100719.38;;;-0.05;76.84
62124;BME280;48110;47.532;19.078;2023-04-05T05:35:47;100722.91;;;-0.06;75.86
62124;BME280;48110;47.532;19.078;2023-04-05T05:38:50;100710.59;;;-0.04;75.61
62124;BME280;48110;47.532;19.078;2023-04-05T05:41:53;100710.50;;;0.12;73.34
62124;BME280;48110;47.532;19.078;2023-04-05T05:44:56;100711.06;;;0.17;73.57
62124;BME280;48110;47.532;19.078;2023-04-05T05:47:58;100709.09;;;0.20;71.81
62124;BME280;48110;47.532;19.078;2023-04-05T05:51:01;100710.97;;;0.32;69.79
62124;BME280;48110;47.532;19.078;2023-04-05T05:54:04;100712.66;;;0.33;70.34
62124;BME280;48110;47.532;19.078;2023-04-05T05:57:07;100707.50;;;0.46;68.15
62124;BME280;48110;47.532;19.078;2023-04-05T06:00:09;100703.47;;;0.55;67.94
62124;BME280;48110;47.532;19.078;2023-04-05T06:03:12;100697.81;;;0.48;67.92
62124;BME280;48110;47.532;19.078;2023-04-05T06:06:15;100702.34;;;0.59;67.28
62124;BME280;48110;47.532;19.078;2023-04-05T06:09:18;100709.41;;;0.71;66.50
62124;BME280;48110;47.532;19.078;2023-04-05T06:12:21;100702.38;;;0.85;65.16
62124;BME280;48110;47.532;19.078;2023-04-05T06:15:23;100715.78;;;0.94;64.99
62124;BME280;48110;47.532;19.078;2023-04-05T06:18:26;100696.81;;;1.04;63.93
62124;BME280;48110;47.532;19.078;2023-04-05T06:21:28;100703.81;;;1.16;62.64
62124;BME280;48110;47.532;19.078;2023-04-05T06:24:31;100705.31;;;1.20;60.82
62124;BME280;48110;47.532;19.078;2023-04-05T06:27:33;100702.34;;;1.39;60.37
62124;BME280;48110;47.532;19.078;2023-04-05T06:30:36;100709.81;;;1.31;57.32
62124;BME280;48110;47.532;19.078;2023-04-05T06:33:39;100706.94;;;1.48;57.10
62124;BME280;48110;47.532;19.078;2023-04-05T06:36:42;100704.16;;;1.64;55.16
62124;BME280;48110;47.532;19.078;2023-04-05T06:39:44;100714.50;;;2.03;53.24
62124;BME280;48110;47.532;19.078;2023-04-05T06:42:47;100708.78;;;2.47;51.93
62124;BME280;48110;47.532;19.078;2023-04-05T06:45:50;100706.50;;;2.55;51.61
62124;BME280;48110;47.532;19.078;2023-04-05T06:48:53;100712.53;;;2.92;50.50
62124;BME280;48110;47.532;19.078;2023-04-05T06:51:55;100709.97;;;3.73;48.58
62124;BME280;48110;47.532;19.078;2023-04-05T06:54:58;100713.44;;;3.63;47.77
62124;BME280;48110;47.532;19.078;2023-04-05T06:58:00;100710.91;;;3.26;48.01
62124;BME280;48110;47.532;19.078;2023-04-05T07:01:03;100712.16;;;3.33;48.17
62124;BME280;48110;47.532;19.078;2023-04-05T07:04:06;100717.16;;;4.82;46.00
62124;BME280;48110;47.532;19.078;2023-04-05T07:07:08;100706.75;;;3.70;46.89
62124;BME280;48110;47.532;19.078;2023-04-05T07:10:11;100709.47;;;4.25;46.42
62124;BME280;48110;47.532;19.078;2023-04-05T07:13:14;100715.84;;;4.88;45.07
62124;BME280;48110;47.532;19.078;2023-04-05T07:16:16;100714.84;;;4.35;44.38
62124;BME280;48110;47.532;19.078;2023-04-05T07:19:20;100714.63;;;5.77;42.41
62124;BME280;48110;47.532;19.078;2023-04-05T07:22:23;100713.81;;;5.97;42.19
62124;BME280;48110;47.532;19.078;2023-04-05T07:25:26;100707.91;;;6.44;40.50
62124;BME280;48110;47.532;19.078;2023-04-05T07:28:29;100718.59;;;6.92;39.92
62124;BME280;48110;47.532;19.078;2023-04-05T07:31:31;100719.97;;;6.68;39.78
62124;BME280;48110;47.532;19.078;2023-04-05T07:34:34;100720.03;;;7.73;38.59
62124;BME280;48110;47.532;19.078;2023-04-05T07:37:37;100712.22;;;6.45;39.38
62124;BME280;48110;47.532;19.078;2023-04-05T07:40:40;100711.00;;;7.28;38.82
62124;BME280;48110;47.532;19.078;2023-04-05T07:43:43;100715.75;;;7.43;39.19
62124;BME280;48110;47.532;19.078;2023-04-05T07:46:46;100710.41;;;7.82;37.90
62124;BME280;48110;47.532;19.078;2023-04-05T07:49:50;100707.66;;;6.38;40.30
62124;BME280;48110;47.532;19.078;2023-04-05T07:52:53;100701.59;;;5.75;40.99
62124;BME280;48110;47.532;19.078;2023-04-05T07:55:55;100700.25;;;5.81;41.60
62124;BME280;48110;47.532;19.078;2023-04-05T07:58:58;100708.25;;;7.49;38.88
62124;BME280;48110;47.532;19.078;2023-04-05T08:02:02;100702.97;;;8.05;36.99
62124;BME280;48110;47.532;19.078;2023-04-05T08:05:16;100699.59;;;9.39;35.74
62124;BME280;48110;47.532;19.078;2023-04-05T08:08:18;100706.56;;;10.01;33.53
62124;BME280;48110;47.532;19.078;2023-04-05T08:11:21;100710.28;;;10.17;33.85
62124;BME280;48110;47.532;19.078;2023-04-05T08:14:23;100702.41;;;9.02;34.49
62124;BME280;48110;47.532;19.078;2023-04-05T08:17:26;100696.88;;;9.31;35.24
62124;BME280;48110;47.532;19.078;2023-04-05T08:20:32;100697.78;;;7.66;37.39
62124;BME280;48110;47.532;19.078;2023-04-05T08:23:41;100702.44;;;8.75;36.19
62124;BME280;48110;47.532;19.078;2023-04-05T08:26:43;100695.31;;;9.82;34.63
62124;BME280;48110;47.532;19.078;2023-04-05T08:29:47;100692.31;;;9.77;34.31
62124;BME280;48110;47.532;19.078;2023-04-05T08:32:49;100696.59;;;10.03;33.63
62124;BME280;48110;47.532;19.078;2023-04-05T08:35:52;100691.16;;;10.73;32.23
62124;BME280;48110;47.532;19.078;2023-04-05T08:38:54;100692.28;;;11.20;31.84
62124;BME280;48110;47.532;19.078;2023-04-05T08:42:07;100699.75;;;11.25;31.57
62124;BME280;48110;47.532;19.078;2023-04-05T08:45:13;100689.78;;;11.67;30.36
62124;BME280;48110;47.532;19.078;2023-04-05T08:48:16;100694.47;;;10.33;32.87
62124;BME280;48110;47.532;19.078;2023-04-05T08:51:19;100691.97;;;10.31;32.69
62124;BME280;48110;47.532;19.078;2023-04-05T08:54:22;100683.81;;;9.99;33.20
62124;BME280;48110;47.532;19.078;2023-04-05T08:57:25;100681.97;;;10.17;33.00
62124;BME280;48110;47.532;19.078;2023-04-05T09:00:30;100677.50;;;11.34;30.85
62124;BME280;48110;47.532;19.078;2023-04-05T09:03:35;100678.66;;;11.48;31.59
62124;BME280;48110;47.532;19.078;2023-04-05T09:06:40;100678.94;;;9.60;34.42
62124;BME280;48110;47.532;19.078;2023-04-05T09:09:48;100684.16;;;6.84;38.18
62124;BME280;48110;47.532;19.078;2023-04-05T09:12:53;100671.72;;;7.44;37.92
62124;BME280;48110;47.532;19.078;2023-04-05T09:15:56;100674.81;;;6.51;40.32
62124;BME280;48110;47.532;19.078;2023-04-05T09:19:02;100667.06;;;6.20;39.80
62124;BME280;48110;47.532;19.078;2023-04-05T09:22:06;100668.91;;;5.98;40.16
62124;BME280;48110;47.532;19.078;2023-04-05T09:25:09;100670.03;;;6.05;41.04
62124;BME280;48110;47.532;19.078;2023-04-05T09:28:12;100672.88;;;5.72;41.43
62124;BME280;48110;47.532;19.078;2023-04-05T09:31:30;100670.06;;;5.85;41.58
62124;BME280;48110;47.532;19.078;2023-04-05T09:34:33;100661.06;;;5.66;41.96
62124;BME280;48110;47.532;19.078;2023-04-05T09:37:47;100669.75;;;5.57;41.58
62124;BME280;48110;47.532;19.078;2023-04-05T09:40:51;100655.25;;;5.42;41.58
62124;BME280;48110;47.532;19.078;2023-04-05T09:43:55;100667.44;;;5.43;40.64
62124;BME280;48110;47.532;19.078;2023-04-05T09:46:57;100662.84;;;5.56;40.81
62124;BME280;48110;47.532;19.078;2023-04-05T09:50:17;100666.16;;;6.00;40.97
62124;BME280;48110;47.532;19.078;2023-04-05T09:53:20;100653.16;;;6.08;40.55
62124;BME280;48110;47.532;19.078;2023-04-05T09:56:24;100647.69;;;5.69;41.96
62124;BME280;48110;47.532;19.078;2023-04-05T09:59:27;100647.53;;;5.92;41.44
62124;BME280;48110;47.532;19.078;2023-04-05T10:02:37;100642.88;;;6.45;40.40
62124;BME280;48110;47.532;19.078;2023-04-05T10:05:42;100635.59;;;5.88;40.29
62124;BME280;48110;47.532;19.078;2023-04-05T10:08:46;100637.44;;;5.97;40.47
62124;BME280;48110;47.532;19.078;2023-04-05T10:11:49;100634.97;;;5.75;39.65
62124;BME280;48110;47.532;19.078;2023-04-05T10:14:52;100646.25;;;6.17;41.54
62124;BME280;48110;47.532;19.078;2023-04-05T10:18:06;100640.94;;;6.07;41.67
62124;BME280;48110;47.532;19.078;2023-04-05T10:21:11;100639.12;;;5.98;41.79
62124;BME280;48110;47.532;19.078;2023-04-05T10:24:38;100636.00;;;5.42;42.46
62124;BME280;48110;47.532;19.078;2023-04-05T10:27:46;100637.50;;;5.86;42.75
62124;BME280;48110;47.532;19.078;2023-04-05T10:30:50;100626.91;;;5.97;43.00
62124;BME280;48110;47.532;19.078;2023-04-05T10:37:29;100626.78;;;5.98;39.87
62124;BME280;48110;47.532;19.078;2023-04-05T10:40:37;100619.22;;;5.84;39.82
62124;BME280;48110;47.532;19.078;2023-04-05T10:43:40;100628.91;;;6.73;40.56
62124;BME280;48110;47.532;19.078;2023-04-05T10:46:44;100625.59;;;7.19;38.75
62124;BME280;48110;47.532;19.078;2023-04-05T10:49:48;100625.56;;;7.58;39.29
62124;BME280;48110;47.532;19.078;2023-04-05T10:52:51;100621.88;;;7.78;39.67
62124;BME280;48110;47.532;19.078;2023-04-05T10:55:54;100614.25;;;8.12;37.14
62124;BME280;48110;47.532;19.078;2023-04-05T10:58:58;100613.66;;;10.53;33.87
62124;BME280;48110;47.532;19.078;2023-04-05T11:02:02;100613.47;;;13.24;29.31
62124;BME280;48110;47.532;19.078;2023-04-05T11:05:05;100615.47;;;12.76;28.60
62124;BME280;48110;47.532;19.078;2023-04-05T11:08:08;100621.22;;;14.00;27.89
62124;BME280;48110;47.532;19.078;2023-04-05T11:11:17;100614.97;;;14.22;27.47
62124;BME280;48110;47.532;19.078;2023-04-05T11:17:26;100612.50;;;16.66;23.93
62124;BME280;48110;47.532;19.078;2023-04-05T11:20:43;100610.44;;;16.27;24.22
62124;BME280;48110;47.532;19.078;2023-04-05T11:23:59;100615.50;;;17.30;23.20
62124;BME280;48110;47.532;19.078;2023-04-05T11:27:02;100601.97;;;14.19;25.02
62124;BME280;48110;47.532;19.078;2023-04-05T11:30:10;100597.31;;;12.18;26.70
62124;BME280;48110;47.532;19.078;2023-04-05T11:39:36;100600.22;;;17.77;22.34
62124;BME280;48110;47.532;19.078;2023-04-05T11:42:40;100600.16;;;18.10;21.48
62124;BME280;48110;47.532;19.078;2023-04-05T11:45:43;100597.28;;;19.75;19.29
62124;BME280;48110;47.532;19.078;2023-04-05T11:48:48;100592.53;;;14.02;23.76
62124;BME280;48110;47.532;19.078;2023-04-05T11:51:51;100591.25;;;16.11;22.68
62124;BME280;48110;47.532;19.078;2023-04-05T11:54:54;100588.84;;;17.09;20.59
62124;BME280;48110;47.532;19.078;2023-04-05T11:57:57;100587.06;;;18.27;20.40
62124;BME280;48110;47.532;19.078;2023-04-05T12:01:03;100580.88;;;18.26;19.76
62124;BME280;48110;47.532;19.078;2023-04-05T12:04:08;100576.47;;;20.96;17.84
62124;BME280;48110;47.532;19.078;2023-04-05T12:07:12;100566.78;;;20.17;18.44
62124;BME280;48110;47.532;19.078;2023-04-05T12:10:15;100581.28;;;19.98;18.27
62124;BME280;48110;47.532;19.078;2023-04-05T12:13:28;100565.16;;;17.06;20.49
62124;BME280;48110;47.532;19.078;2023-04-05T12:16:30;100571.03;;;19.88;18.77
62124;BME280;48110;47.532;19.078;2023-04-05T12:19:33;100569.56;;;18.11;20.74
62124;BME280;48110;47.532;19.078;2023-04-05T12:22:36;100566.66;;;18.95;20.17
62124;BME280;48110;47.532;19.078;2023-04-05T12:25:39;100564.66;;;19.15;19.82
62124;BME280;48110;47.532;19.078;2023-04-05T12:28:51;100555.53;;;20.68;17.49
62124;BME280;48110;47.532;19.078;2023-04-05T12:31:59;100556.78;;;23.25;16.01
62124;BME280;48110;47.532;19.078;2023-04-05T12:35:06;100547.03;;;22.23;16.22
62124;BME280;48110;47.532;19.078;2023-04-05T12:38:08;100542.19;;;22.65;16.26
62124;BME280;48110;47.532;19.078;2023-04-05T12:41:12;100542.16;;;23.26;15.84
62124;BME280;48110;47.532;19.078;2023-04-05T12:44:15;100540.69;;;16.35;19.80
62124;BME280;48110;47.532;19.078;2023-04-05T12:47:18;100538.34;;;17.46;20.00
62124;BME280;48110;47.532;19.078;2023-04-05T12:50:29;100538.66;;;16.44;20.88
62124;BME280;48110;47.532;19.078;2023-04-05T12:53:32;100537.22;;;22.05;16.86
62124;BME280;48110;47.532;19.078;2023-04-05T12:56:35;100531.69;;;22.68;15.47
62124;BME280;48110;47.532;19.078;2023-04-05T12:59:39;100516.06;;;17.19;20.92
62124;BME280;48110;47.532;19.078;2023-04-05T13:02:42;100531.53;;;15.69;21.78
62124;BME280;48110;47.532;19.078;2023-04-05T13:05:45;100528.47;;;17.33;21.16
62124;BME280;48110;47.532;19.078;2023-04-05T13:08:49;100525.09;;;21.44;17.11
62124;BME280;48110;47.532;19.078;2023-04-05T13:11:52;100537.38;;;23.33;15.99
62124;BME280;48110;47.532;19.078;2023-04-05T13:14:54;100523.50;;;22.06;16.16
62124;BME280;48110;47.532;19.078;2023-04-05T13:17:57;100516.25;;;21.72;16.57
62124;BME280;48110;47.532;19.078;2023-04-05T13:20:59;100508.28;;;22.74;16.21
62124;BME280;48110;47.532;19.078;2023-04-05T13:24:06;100515.78;;;21.05;18.07
62124;BME280;48110;47.532;19.078;2023-04-05T13:27:10;100524.63;;;21.59;17.01
62124;BME280;48110;47.532;19.078;2023-04-05T13:30:13;100515.09;;;20.57;17.18
62124;BME280;48110;47.532;19.078;2023-04-05T13:33:16;100513.44;;;19.03;18.64
62124;BME280;48110;47.532;19.078;2023-04-05T13:36:19;100505.47;;;20.61;17.53
62124;BME280;48110;47.532;19.078;2023-04-05T13:39:21;100507.47;;;23.57;15.66
62124;BME280;48110;47.532;19.078;2023-04-05T13:42:24;100509.06;;;22.58;15.86
62124;BME280;48110;47.532;19.078;2023-04-05T13:45:28;100497.84;;;20.58;17.24
62124;BME280;48110;47.532;19.078;2023-04-05T13:48:31;100497.41;;;21.89;16.45
62124;BME280;48110;47.532;19.078;2023-04-05T13:51:33;100486.66;;;20.13;18.89
62124;BME280;48110;47.532;19.078;2023-04-05T13:54:38;100499.62;;;16.15;21.50
62124;BME280;48110;47.532;19.078;2023-04-05T13:57:40;100485.44;;;16.15;22.05
62124;BME280;48110;47.532;19.078;2023-04-05T14:00:43;100492.84;;;14.03;24.46
62124;BME280;48110;47.532;19.078;2023-04-05T14:03:46;100493.56;;;14.97;22.71
62124;BME280;48110;47.532;19.078;2023-04-05T14:06:48;100488.00;;;17.34;21.40
62124;BME280;48110;47.532;19.078;2023-04-05T14:09:51;100498.47;;;19.75;18.56
62124;BME280;48110;47.532;19.078;2023-04-05T14:12:53;100494.37;;;19.55;18.47
62124;BME280;48110;47.532;19.078;2023-04-05T14:15:55;100485.78;;;19.21;18.45
62124;BME280;48110;47.532;19.078;2023-04-05T14:18:58;100490.06;;;19.29;18.54
62124;BME280;48110;47.532;19.078;2023-04-05T14:22:02;100482.84;;;17.39;20.28
62124;BME280;48110;47.532;19.078;2023-04-05T14:25:04;100480.50;;;16.18;21.95
62124;BME280;48110;47.532;19.078;2023-04-05T14:28:09;100476.34;;;14.00;24.13
62124;BME280;48110;47.532;19.078;2023-04-05T14:31:12;100482.22;;;11.54;27.33
62124;BME280;48110;47.532;19.078;2023-04-05T14:34:15;100476.22;;;10.49;27.80
62124;BME280;48110;47.532;19.078;2023-04-05T14:37:17;100479.88;;;10.88;28.07
62124;BME280;48110;47.532;19.078;2023-04-05T14:40:20;100478.84;;;11.05;26.89
62124;BME280;48110;47.532;19.078;2023-04-05T14:43:23;100474.22;;;10.51;28.60
62124;BME280;48110;47.532;19.078;2023-04-05T14:46:27;100473.09;;;9.87;29.44
62124;BME280;48110;47.532;19.078;2023-04-05T14:49:29;100476.31;;;9.65;29.85
62124;BME280;48110;47.532;19.078;2023-04-05T14:52:32;100487.94;;;9.72;29.83
62124;BME280;48110;47.532;19.078;2023-04-05T14:55:38;100477.37;;;10.70;28.19
62124;BME280;48110;47.532;19.078;2023-04-05T14:58:42;100480.06;;;10.54;28.51
62124;BME280;48110;47.532;19.078;2023-04-05T15:01:44;100479.72;;;10.57;29.33
62124;BME280;48110;47.532;19.078;2023-04-05T15:04:48;100478.06;;;10.64;29.58
62124;BME280;48110;47.532;19.078;2023-04-05T15:07:51;100483.34;;;9.82;29.34
62124;BME280;48110;47.532;19.078;2023-04-05T15:10:54;100479.72;;;9.49;30.07
62124;BME280;48110;47.532;19.078;2023-04-05T15:13:57;100486.00;;;9.14;30.78
62124;BME280;48110;47.532;19.078;2023-04-05T15:17:00;100481.37;;;9.50;30.27
62124;BME280;48110;47.532;19.078;2023-04-05T15:20:03;100485.09;;;9.31;30.97
62124;BME280;48110;47.532;19.078;2023-04-05T15:23:06;100483.12;;;9.33;31.15
62124;BME280;48110;47.532;19.078;2023-04-05T15:26:08;100492.25;;;9.39;30.65
62124;BME280;48110;47.532;19.078;2023-04-05T15:29:11;100482.09;;;9.26;30.55
62124;BME280;48110;47.532;19.078;2023-04-05T15:32:13;100478.94;;;9.23;30.94
62124;BME280;48110;47.532;19.078;2023-04-05T15:35:16;100487.28;;;9.10;31.92
62124;BME280;48110;47.532;19.078;2023-04-05T15:38:18;100482.72;;;8.77;31.56
62124;BME280;48110;47.532;19.078;2023-04-05T15:41:21;100487.41;;;8.83;31.89
62124;BME280;48110;47.532;19.078;2023-04-05T15:44:24;100491.13;;;8.90;32.08
62124;BME280;48110;47.532;19.078;2023-04-05T15:47:28;100486.47;;;9.09;31.89
62124;BME280;48110;47.532;19.078;2023-04-05T15:50:30;100480.22;;;8.93;31.22
62124;BME280;48110;47.532;19.078;2023-04-05T15:53:33;100489.88;;;9.02;31.13
62124;BME280;48110;47.532;19.078;2023-04-05T15:56:35;100486.16;;;8.69;31.77
62124;BME280;48110;47.532;19.078;2023-04-05T15:59:39;100488.66;;;8.70;31.56
62124;BME280;48110;47.532;19.078;2023-04-05T16:02:46;100487.50;;;8.73;30.59
62124;BME280;48110;47.532;19.078;2023-04-05T16:05:49;100491.09;;;8.46;31.05
62124;BME280;48110;47.532;19.078;2023-04-05T16:08:51;100497.22;;;8.47;31.04
62124;BME280;48110;47.532;19.078;2023-04-05T16:11:54;100496.06;;;8.32;31.02
62124;BME280;48110;47.532;19.078;2023-04-05T16:14:57;100498.56;;;8.06;31.06
62124;BME280;48110;47.532;19.078;2023-04-05T16:18:00;100494.75;;;7.91;31.28